Aviation Digital Data Service (ADDS)

Output produced by METARs form (1527 UTC 22 April 2021)
found at http://aviationweather.gov/metar/data/
 
METAR text: KCHD 221447Z 16007KT 10SM BKN250 20/M02 A2984
Conditions at: KCHD (CHANDLER , AZ, US) observed 1447 UTC 22 April 2021
Temperature: 20.0°C (68°F)
Dewpoint: -2.0°C (28°F) [RH = 23%]
Pressure (altimeter): 29.84 inches Hg (1010.6 mb)
Winds: from the SSE (160 degrees) at 8 MPH (7 knots; 3.6 m/s)
Visibility: 10 or more miles (16+ km)
Ceiling: 25000 feet AGL
Clouds: broken clouds at 25000 feet AGL
Weather: no significant weather observed at this time

METAR text: KCHD 221347Z 16009KT 10SM BKN250 19/M02 A2983
Conditions at: KCHD (CHANDLER , AZ, US) observed 1347 UTC 22 April 2021
Temperature: 19.0°C (66°F)
Dewpoint: -2.0°C (28°F) [RH = 24%]
Pressure (altimeter): 29.83 inches Hg (1010.2 mb)
Winds: from the SSE (160 degrees) at 10 MPH (9 knots; 4.6 m/s)
Visibility: 10 or more miles (16+ km)
Ceiling: 25000 feet AGL
Clouds: broken clouds at 25000 feet AGL
Weather: no significant weather observed at this time

METAR text: KCHD 221247Z 00000KT 10SM BKN250 16/M01 A2980
Conditions at: KCHD (CHANDLER , AZ, US) observed 1247 UTC 22 April 2021
Temperature: 16.0°C (61°F)
Dewpoint: -1.0°C (30°F) [RH = 31%]
Pressure (altimeter): 29.80 inches Hg (1009.2 mb)
Winds: calm
Visibility: 10 or more miles (16+ km)
Ceiling: 25000 feet AGL
Clouds: broken clouds at 25000 feet AGL
Weather: no significant weather observed at this time

METAR text: KCHD 220347Z 16006KT 10SM SKC 24/M12 A2971 RMK LAST
Conditions at: KCHD (CHANDLER , AZ, US) observed 0347 UTC 22 April 2021
Temperature: 24.0°C (75°F)
Dewpoint: -12.0°C (10°F) [RH =  8%]
Pressure (altimeter): 29.71 inches Hg (1006.2 mb)
Winds: from the SSE (160 degrees) at 7 MPH (6 knots; 3.1 m/s)
Visibility: 10 or more miles (16+ km)
Ceiling: at least 12,000 feet AGL
Clouds: clear skies
Weather: no significant weather observed at this time